Time;durP1;ratioP1;P1;durP2;ratioP2;P2;SDS_P1;SDS_P2;PMS_P1;PMS_P2;Temp;Humidity;BMP_temperature;BMP_pressure;BME280_temperature;BME280_humidity;BME280_pressure;Samples;Min_cycle;Max_cycle;Signal;HPM_P1;HPM_P2
2022/09/09 00:01:31;;;;;;;3.08;2.10;;;;;;;7.35;64.13;100676.56;4773188;29;20054;-78
2022/09/09 00:03:59;;;;;;;4.55;2.17;;;;;;;7.44;64.58;100697.44;4773360;29;20086;-78
2022/09/09 00:06:55;;;;;;;3.38;2.13;;;;;;;7.44;64.56;100700.00;4749516;30;20062;-80
2022/09/09 00:09:24;;;;;;;2.20;1.90;;;;;;;7.46;63.98;100705.25;4772939;29;20081;-77
2022/09/09 00:12:14;;;;;;;4.00;1.77;;;;;;;7.51;64.16;100704.47;4746408;30;20118;-78
2022/09/09 00:14:55;;;;;;;3.25;2.10;;;;;;;7.57;64.35;100715.78;4760611;30;20595;-78
2022/09/09 00:17:47;;;;;;;3.20;1.90;;;;;;;7.59;64.07;100704.59;4763613;30;20077;-78
2022/09/09 00:20:29;;;;;;;4.78;2.70;;;;;;;7.60;64.23;100706.34;4767347;29;20056;-78
2022/09/09 00:23:24;;;;;;;2.92;2.50;;;;;;;7.57;63.52;100692.47;4758366;30;20051;-80
2022/09/09 00:26:21;;;;;;;3.47;2.40;;;;;;;7.70;64.09;100709.97;4760743;30;20051;-80
2022/09/09 00:29:14;;;;;;;3.15;2.40;;;;;;;7.72;63.71;100713.47;4759760;29;20051;-79
2022/09/09 00:31:40;;;;;;;2.53;1.60;;;;;;;7.72;63.55;100697.91;4755898;30;20200;-79
2022/09/09 00:34:17;;;;;;;4.82;1.58;;;;;;;7.74;63.60;100711.78;4756050;29;20386;-78
2022/09/09 00:36:46;;;;;;;3.25;1.45;;;;;;;7.76;63.56;100704.00;4772437;29;20078;-80
2022/09/09 00:39:37;;;;;;;4.05;1.45;;;;;;;7.71;63.67;100696.19;4741880;30;20051;-79
2022/09/09 00:42:18;;;;;;;2.80;1.50;;;;;;;7.83;63.39;100711.91;4741734;30;20512;-80
2022/09/09 00:45:20;;;;;;;2.63;1.30;;;;;;;7.90;63.32;100714.63;4773191;29;20050;-78
2022/09/09 00:47:50;;;;;;;1.90;1.48;;;;;;;7.94;63.01;100717.31;4767363;29;20133;-77
2022/09/09 00:50:55;;;;;;;2.22;1.60;;;;;;;7.86;62.71;100703.34;4770871;29;20101;-78
2022/09/09 00:53:37;;;;;;;3.92;1.45;;;;;;;8.01;63.02;100718.28;4770833;29;20578;-79
2022/09/09 00:56:35;;;;;;;4.95;2.55;;;;;;;8.01;62.88;100714.78;4745482;30;20392;-77
2022/09/09 00:59:36;;;;;;;4.55;1.70;;;;;;;8.03;62.47;100729.53;4766425;29;20043;-78
2022/09/09 01:02:13;;;;;;;3.30;1.92;;;;;;;7.89;62.78;100712.88;4754937;29;20082;-78
2022/09/09 01:04:39;;;;;;;3.25;1.75;;;;;;;7.90;62.93;100722.41;4754741;30;20051;-78
2022/09/09 01:07:18;;;;;;;4.53;1.98;;;;;;;7.81;62.77;100717.94;4773530;30;20074;-79
2022/09/09 01:09:54;;;;;;;3.13;1.80;;;;;;;7.81;62.79;100728.28;4760157;30;20090;-79
2022/09/09 01:12:25;;;;;;;3.13;2.28;;;;;;;7.77;62.97;100731.66;4758271;30;20138;-78
2022/09/09 01:15:08;;;;;;;2.75;1.92;;;;;;;7.66;62.77;100726.31;4755752;30;20052;-79
2022/09/09 01:17:49;;;;;;;5.40;2.25;;;;;;;7.59;62.77;100716.69;4749148;30;20081;-79
2022/09/09 01:20:30;;;;;;;3.47;2.13;;;;;;;7.61;62.77;100733.16;4744832;30;20516;-78
2022/09/09 01:23:04;;;;;;;4.07;2.30;;;;;;;7.68;63.09;100738.47;4774651;29;20052;-78
2022/09/09 01:26:01;;;;;;;4.57;2.13;;;;;;;7.66;63.05;100744.44;4762091;30;20523;-80
2022/09/09 01:28:28;;;;;;;2.70;1.75;;;;;;;7.61;62.87;100740.91;4759600;30;20074;-77
2022/09/09 01:31:04;;;;;;;4.70;1.83;;;;;;;7.60;63.03;100745.22;4752073;30;20047;-77
2022/09/09 01:33:36;;;;;;;4.07;1.85;;;;;;;7.43;63.44;100731.06;4753046;30;20047;-79
2022/09/09 01:36:21;;;;;;;2.85;1.98;;;;;;;7.52;63.13;100760.59;4776519;30;20106;-77
2022/09/09 01:38:50;;;;;;;2.95;1.65;;;;;;;7.47;62.94;100757.06;4757887;30;20452;-80
2022/09/09 01:41:18;;;;;;;3.25;1.73;;;;;;;7.56;63.31;100764.13;4777323;30;20087;-79
2022/09/09 01:43:55;;;;;;;4.07;1.73;;;;;;;7.58;63.15;100762.44;4759719;30;20062;-77
2022/09/09 01:46:23;;;;;;;2.97;1.75;;;;;;;7.65;63.25;100768.59;4758889;30;20059;-79
2022/09/09 01:48:55;;;;;;;1.70;1.60;;;;;;;7.71;63.26;100768.72;4773991;29;20047;-80
2022/09/09 01:51:22;;;;;;;3.22;1.70;;;;;;;7.76;63.37;100759.31;4758663;30;20084;-79
2022/09/09 01:53:49;;;;;;;4.13;1.92;;;;;;;7.77;63.05;100768.84;4759239;30;20485;-78
2022/09/09 01:56:32;;;;;;;3.03;1.77;;;;;;;7.83;63.22;100768.06;4758659;29;20496;-79
2022/09/09 01:59:26;;;;;;;3.38;2.00;;;;;;;7.87;63.11;100761.22;4757960;29;20082;-79
2022/09/09 02:02:08;;;;;;;2.70;1.48;;;;;;;7.90;63.16;100769.94;4761478;30;20063;-79
2022/09/09 02:04:40;;;;;;;2.28;1.50;;;;;;;7.94;62.97;100763.97;4762569;30;20040;-80
2022/09/09 02:07:22;;;;;;;1.38;1.23;;;;;;;7.98;63.02;100767.47;4759451;30;20570;-79
2022/09/09 02:09:57;;;;;;;2.17;1.45;;;;;;;7.95;63.03;100763.09;4744835;29;20180;-81
2022/09/09 02:12:26;;;;;;;8.05;1.58;;;;;;;7.91;63.11;100756.13;4743261;29;20082;-79
2022/09/09 02:15:03;;;;;;;4.20;1.30;;;;;;;7.91;62.73;100750.06;4745256;30;20401;-81
2022/09/09 02:17:41;;;;;;;1.60;1.13;;;;;;;7.97;62.64;100773.50;4774030;29;20500;-79
2022/09/09 02:20:15;;;;;;;1.92;1.10;;;;;;;7.77;62.50;100752.41;4744641;30;20043;-80
2022/09/09 02:22:55;;;;;;;2.47;1.30;;;;;;;7.63;63.02;100766.00;4774266;30;20051;-79
2022/09/09 02:25:28;;;;;;;7.13;3.95;;;;;;;7.56;62.74;100777.06;4758566;30;20043;-79
2022/09/09 02:27:59;;;;;;;7.75;4.07;;;;;;;7.54;63.12;100781.34;4745903;30;20063;-79
2022/09/09 02:30:29;;;;;;;2.15;1.55;;;;;;;7.41;62.99;100771.59;4773755;30;20050;-79
2022/09/09 02:33:01;;;;;;;4.82;2.00;;;;;;;7.41;63.29;100795.78;4759214;30;20131;-79
2022/09/09 02:35:44;;;;;;;3.80;1.88;;;;;;;7.32;63.42;100788.69;4775314;30;20074;-78
2022/09/09 02:38:15;;;;;;;4.07;1.92;;;;;;;7.26;63.45;100790.28;4752507;30;20047;-79
2022/09/09 02:40:49;;;;;;;4.55;1.65;;;;;;;7.23;63.44;100784.19;4747638;30;20051;-79
2022/09/09 02:43:18;;;;;;;4.07;2.42;;;;;;;7.27;63.54;100795.50;4777754;29;20538;-78
2022/09/09 02:46:14;;;;;;;3.15;1.85;;;;;;;7.29;63.75;100798.13;4749353;29;20578;-81
2022/09/09 02:49:06;;;;;;;5.57;1.60;;;;;;;7.23;63.82;100804.06;4751969;29;20054;-78
2022/09/09 02:51:52;;;;;;;5.10;1.67;;;;;;;7.19;63.62;100812.59;4770546;30;20499;-78
2022/09/09 02:55:37;;;;;;;4.55;1.70;;;;;;;7.16;63.32;100816.00;4762955;29;20048;-77
2022/09/09 02:58:39;;;;;;;3.63;2.05;;;;;;;7.13;63.63;100826.28;4772166;30;20063;-80
2022/09/09 03:02:12;;;;;;;3.38;1.75;;;;;;;7.09;63.91;100822.72;4776024;29;20066;-81
2022/09/09 03:04:44;;;;;;;2.78;1.58;;;;;;;7.03;64.10;100820.03;4757866;29;20527;-78
2022/09/09 03:07:11;;;;;;;3.15;1.67;;;;;;;7.05;63.97;100825.22;4771721;29;20066;-78
2022/09/09 03:09:43;;;;;;;3.85;1.85;;;;;;;7.08;63.89;100827.88;4758540;29;20060;-79
2022/09/09 03:12:11;;;;;;;3.05;2.00;;;;;;;7.07;64.16;100832.19;4772957;29;20132;-80
2022/09/09 03:14:38;;;;;;;3.53;1.52;;;;;;;7.06;63.78;100829.56;4762992;29;20504;-78
2022/09/09 03:17:05;;;;;;;3.28;1.90;;;;;;;7.04;64.20;100823.47;4765732;30;20134;-79
2022/09/09 03:19:37;;;;;;;6.25;1.88;;;;;;;7.01;64.63;100810.47;4770351;29;20048;-79
2022/09/09 03:22:05;;;;;;;4.20;1.75;;;;;;;7.16;64.71;100826.34;4739594;29;20059;-79
2022/09/09 03:24:35;;;;;;;9.82;2.08;;;;;;;7.13;64.54;100818.53;4730813;30;20415;-79
2022/09/09 03:27:04;;;;;;;5.70;2.08;;;;;;;7.14;64.52;100830.63;4745631;30;20138;-77
2022/09/09 03:29:30;;;;;;;4.75;2.30;;;;;;;7.01;64.49;100800.13;4773086;29;20118;-79
2022/09/09 03:31:59;;;;;;;5.75;2.10;;;;;;;7.24;64.29;100831.69;4758231;29;20059;-79
2022/09/09 03:34:26;;;;;;;6.90;2.30;;;;;;;7.41;64.64;100842.38;4762441;30;20118;-79
2022/09/09 03:36:52;;;;;;;5.93;2.33;;;;;;;7.52;64.57;100840.00;4763663;30;20055;-80
2022/09/09 03:39:18;;;;;;;4.65;2.20;;;;;;;7.63;64.34;100848.00;4775093;30;20073;-78
2022/09/09 03:41:45;;;;;;;3.55;1.90;;;;;;;7.74;64.39;100843.03;4769266;30;20058;-79
2022/09/09 03:44:11;;;;;;;5.57;2.20;;;;;;;7.91;64.54;100848.53;4776080;30;20050;-78
2022/09/09 03:46:40;;;;;;;2.67;2.00;;;;;;;8.01;64.52;100853.06;4736995;30;20115;-79
2022/09/09 03:49:07;;;;;;;8.05;2.25;;;;;;;8.06;64.09;100850.56;4761241;30;20050;-78
2022/09/09 03:51:36;;;;;;;3.33;2.42;;;;;;;7.98;63.90;100837.44;4742694;30;20102;-79
2022/09/09 03:54:04;;;;;;;4.07;1.98;;;;;;;7.97;63.68;100848.66;4757183;30;20062;-78
2022/09/09 03:56:31;;;;;;;3.47;2.05;;;;;;;7.90;63.69;100842.50;4759869;30;20048;-80
2022/09/09 03:58:58;;;;;;;3.33;2.42;;;;;;;8.06;63.88;100855.72;4776200;29;20048;-80
2022/09/09 04:01:24;;;;;;;4.35;1.90;;;;;;;8.02;63.83;100847.03;4761159;30;20066;-82
2022/09/09 04:03:52;;;;;;;4.15;2.40;;;;;;;8.10;63.58;100850.63;4740651;30;20055;-79
2022/09/09 04:06:20;;;;;;;3.95;2.10;;;;;;;8.25;63.65;100869.91;4761620;30;20039;-79
2022/09/09 04:08:48;;;;;;;4.15;1.95;;;;;;;8.39;63.37;100868.41;4739614;30;20054;-79
2022/09/09 04:11:16;;;;;;;7.65;2.30;;;;;;;8.49;63.16;100859.09;4734627;30;20594;-78
2022/09/09 04:13:44;;;;;;;2.38;1.80;;;;;;;8.71;63.25;100869.84;4761666;30;20054;-79
2022/09/09 04:16:15;;;;;;;2.92;2.17;;;;;;;8.87;62.97;100871.81;4761252;29;20089;-79
2022/09/09 04:18:43;;;;;;;2.78;2.05;;;;;;;8.94;62.38;100862.38;4746045;30;20059;-79
2022/09/09 04:21:12;;;;;;;5.20;2.17;;;;;;;8.83;62.11;100853.59;4777448;30;20472;-79
2022/09/09 04:23:39;;;;;;;7.85;2.22;;;;;;;8.84;61.93;100869.16;4742075;30;20077;-79
2022/09/09 04:26:05;;;;;;;4.63;2.33;;;;;;;8.81;62.07;100870.84;4745949;30;20127;-80
2022/09/09 04:28:35;;;;;;;3.90;2.00;;;;;;;8.95;61.81;100864.13;4772181;30;20140;-76
2022/09/09 04:31:17;;;;;;;3.33;2.20;;;;;;;9.28;61.70;100873.25;4723257;30;20044;-78
2022/09/09 04:33:46;;;;;;;4.03;2.53;;;;;;;9.67;61.46;100868.56;4741193;30;20413;-79
2022/09/09 04:36:13;;;;;;;3.80;2.10;;;;;;;9.96;61.40;100862.81;4771113;29;20051;-78
2022/09/09 04:38:41;;;;;;;6.18;3.42;;;;;;;10.14;60.58;100850.88;4742462;30;20053;-80
2022/09/09 04:41:09;;;;;;;3.20;2.08;;;;;;;10.41;59.74;100860.69;4741139;29;20047;-78
2022/09/09 04:43:37;;;;;;;4.40;2.20;;;;;;;10.73;59.95;100870.47;4741765;29;20075;-80
2022/09/09 04:46:05;;;;;;;6.80;2.15;;;;;;;10.95;59.55;100868.00;4741792;30;20058;-81
2022/09/09 04:48:32;;;;;;;4.15;2.38;;;;;;;11.22;58.62;100862.13;4781528;29;20043;-82
2022/09/09 04:51:04;;;;;;;3.92;2.17;;;;;;;11.65;58.00;100871.00;4786987;29;20088;-79
2022/09/09 04:53:34;;;;;;;5.65;2.38;;;;;;;11.85;57.41;100871.03;4754247;30;20043;-79
2022/09/09 04:56:06;;;;;;;5.18;3.05;;;;;;;12.22;56.96;100868.56;4772346;30;20055;-80
2022/09/09 04:58:36;;;;;;;4.70;2.60;;;;;;;12.98;56.52;100865.06;4772270;30;20051;-81
2022/09/09 05:01:09;;;;;;;3.95;2.10;;;;;;;14.81;55.57;100858.88;4742333;30;20052;-80
2022/09/09 05:03:45;;;;;;;5.60;1.95;;;;;;;16.92;53.11;100841.06;4751055;30;20051;-79
2022/09/09 05:06:18;;;;;;;2.53;1.83;;;;;;;19.05;49.31;100852.13;4749083;30;20082;-77
2022/09/09 05:08:46;;;;;;;2.28;1.63;;;;;;;20.76;45.10;100846.00;4758745;30;20047;-78
2022/09/09 05:11:19;;;;;;;4.00;2.65;;;;;;;22.25;42.40;100850.16;4745196;30;20604;-78
2022/09/09 05:13:46;;;;;;;3.97;1.83;;;;;;;23.62;39.68;100845.97;4760571;30;20047;-79
2022/09/09 05:16:13;;;;;;;3.30;1.70;;;;;;;24.85;37.23;100837.34;4775343;29;20043;-76
2022/09/09 05:18:41;;;;;;;20.38;10.43;;;;;;;25.89;34.65;100834.41;4751586;30;20075;-77
2022/09/09 05:21:14;;;;;;;16.13;10.32;;;;;;;26.85;33.26;100833.31;4745290;30;20044;-78
2022/09/09 05:23:42;;;;;;;4.63;2.17;;;;;;;27.84;30.79;100842.31;4760800;29;20513;-79
2022/09/09 05:26:17;;;;;;;4.95;1.80;;;;;;;28.77;29.36;100828.16;4780883;30;20040;-78
2022/09/09 05:29:00;;;;;;;1.98;1.75;;;;;;;29.55;28.20;100802.13;4745477;29;20499;-80
2022/09/09 05:31:41;;;;;;;3.42;1.70;;;;;;;30.38;26.27;100807.59;4770270;30;20051;-79
2022/09/09 05:34:11;;;;;;;3.40;1.73;;;;;;;31.19;24.73;100835.38;4776912;29;20150;-79
2022/09/09 05:36:38;;;;;;;2.35;1.60;;;;;;;31.73;23.60;100821.25;4776375;29;20048;-78
2022/09/09 05:39:06;;;;;;;1.73;1.55;;;;;;;32.37;22.62;100819.53;4768504;29;20080;-82
2022/09/09 05:41:36;;;;;;;2.50;1.70;;;;;;;33.14;22.02;100826.31;4758274;29;20144;-82
2022/09/09 05:44:03;;;;;;;3.83;1.98;;;;;;;33.94;21.08;100817.47;4750241;30;20122;-81
2022/09/09 05:46:37;;;;;;;2.40;1.58;;;;;;;34.36;19.91;100800.94;4760680;29;20626;-80
2022/09/09 05:49:05;;;;;;;2.33;1.75;;;;;;;34.86;19.32;100822.44;4733110;30;20044;-78
2022/09/09 05:51:32;;;;;;;4.07;2.35;;;;;;;35.22;18.79;100820.75;4767295;30;20421;-80
2022/09/09 05:54:03;;;;;;;3.85;1.90;;;;;;;35.36;18.29;100811.28;4770922;30;20477;-79
2022/09/09 05:56:54;;;;;;;4.03;1.88;;;;;;;36.06;17.48;100820.63;4746553;30;20103;-83
2022/09/09 05:59:23;;;;;;;;;;;;;;;36.44;16.97;100832.09;4757660;30;20055;-81
2022/09/09 06:01:52;;;;;;;2.08;1.77;;;;;;;36.32;18.02;100836.91;4784931;29;20382;-78
2022/09/09 06:04:26;;;;;;;2.85;1.58;;;;;;;36.62;16.08;100832.06;4767075;30;20043;-78
2022/09/09 06:06:52;;;;;;;2.67;1.33;;;;;;;36.73;15.75;100827.41;4758365;30;20059;-81
2022/09/09 06:09:21;;;;;;;2.28;1.20;;;;;;;37.03;15.17;100841.47;4767912;30;20047;-83
2022/09/09 06:11:49;;;;;;;2.65;1.73;;;;;;;37.43;15.07;100829.09;4740808;30;20052;-82
2022/09/09 06:14:17;;;;;;;2.03;1.60;;;;;;;37.37;14.26;100838.72;4779642;29;20071;-82
2022/09/09 06:16:49;;;;;;;4.55;1.75;;;;;;;37.47;14.52;100830.47;4763363;29;20111;-81
2022/09/09 06:19:27;;;;;;;3.70;1.63;;;;;;;37.94;13.90;100820.03;4729450;30;20044;-82
2022/09/09 06:21:56;;;;;;;7.95;3.03;;;;;;;38.52;13.66;100834.47;4746796;30;20043;-79
2022/09/09 06:24:22;;;;;;;1.40;1.20;;;;;;;38.84;13.22;100829.97;4740836;30;20051;-82
2022/09/09 06:26:48;;;;;;;2.17;1.40;;;;;;;38.76;12.96;100842.72;4773010;30;20047;-78
2022/09/09 06:29:25;;;;;;;0.98;0.90;;;;;;;39.04;12.66;100839.59;4765103;30;20432;-81
2022/09/09 06:31:52;;;;;;;2.17;1.48;;;;;;;39.75;12.56;100842.34;4742669;29;20056;-79
2022/09/09 06:34:23;;;;;;;1.73;1.40;;;;;;;40.61;11.99;100847.53;4759882;30;20669;-81
2022/09/09 06:36:54;;;;;;;3.17;1.33;;;;;;;41.37;10.92;100841.06;4785163;29;20108;-78
2022/09/09 06:39:21;;;;;;;3.90;2.53;;;;;;;41.45;11.24;100847.44;4768046;30;20047;-79
2022/09/09 06:41:48;;;;;;;3.88;1.90;;;;;;;41.13;10.99;100844.13;4769366;30;20062;-79
2022/09/09 06:44:33;;;;;;;4.38;3.22;;;;;;;41.98;10.64;100848.03;4766801;30;20051;-84
2022/09/09 06:47:13;;;;;;;2.08;1.35;;;;;;;41.09;10.26;100791.81;4743976;29;20492;-82
2022/09/09 06:49:40;;;;;;;2.25;1.13;;;;;;;40.11;10.65;100857.22;4732292;30;20052;-78
2022/09/09 06:52:12;;;;;;;1.00;0.90;;;;;;;40.62;10.59;100862.03;4751211;30;20079;-79
2022/09/09 06:54:38;;;;;;;1.38;1.00;;;;;;;40.15;10.60;100853.09;4765914;29;20051;-81
2022/09/09 06:57:07;;;;;;;1.15;1.00;;;;;;;40.11;10.78;100862.66;4759857;29;20512;-80
2022/09/09 06:59:45;;;;;;;2.78;0.98;;;;;;;40.84;10.12;100868.44;4763878;30;20051;-79
2022/09/09 07:02:18;;;;;;;2.85;0.95;;;;;;;40.81;10.18;100863.41;4762741;30;20116;-80
2022/09/09 07:04:50;;;;;;;1.25;1.05;;;;;;;39.81;10.29;100857.09;4754241;30;20528;-78
2022/09/09 07:07:46;;;;;;;3.75;1.20;;;;;;;36.71;11.47;100860.06;4721507;30;20047;-79
2022/09/09 07:10:18;;;;;;;2.13;1.20;;;;;;;33.76;12.72;100861.31;4747898;30;20056;-79
2022/09/09 07:12:45;;;;;;;5.57;3.47;;;;;;;32.82;13.65;100880.31;4752862;30;20043;-77
2022/09/09 07:15:15;;;;;;;1.90;1.70;;;;;;;34.98;12.90;100859.97;4772418;29;20527;-82
2022/09/09 07:17:44;;;;;;;7.28;4.93;;;;;;;34.45;12.33;100884.81;4752356;30;20133;-80
2022/09/09 07:20:11;;;;;;;4.93;2.33;;;;;;;33.72;12.91;100881.47;4764802;30;20118;-81
2022/09/09 07:22:38;;;;;;;1.70;0.85;;;;;;;32.12;13.25;100883.47;4760755;30;20043;-81
2022/09/09 07:25:05;;;;;;;0.70;0.70;;;;;;;30.94;13.76;100890.13;4753051;30;20052;-83
2022/09/09 07:27:34;;;;;;;1.15;0.95;;;;;;;29.67;14.67;100878.97;4755343;30;20508;-81
2022/09/09 07:30:02;;;;;;;0.73;0.70;;;;;;;30.23;15.45;100891.00;4766585;30;20071;-83
2022/09/09 07:32:30;;;;;;;1.00;0.60;;;;;;;30.80;14.85;100886.72;4754132;30;20535;-81
2022/09/09 07:34:58;;;;;;;1.45;1.00;;;;;;;30.39;14.96;100885.34;4772892;30;20071;-79
2022/09/09 07:37:31;;;;;;;1.00;0.90;;;;;;;30.00;14.89;100893.59;4765442;29;20127;-83
2022/09/09 07:40:05;;;;;;;2.70;1.30;;;;;;;32.29;14.83;100877.56;4748355;30;20527;-80
2022/09/09 07:42:31;;;;;;;2.33;2.13;;;;;;;35.63;12.93;100879.91;4738810;30;20122;-79
2022/09/09 07:44:59;;;;;;;1.15;0.90;;;;;;;36.53;11.85;100895.34;4779875;29;20055;-79
2022/09/09 07:47:25;;;;;;;1.20;0.80;;;;;;;35.25;12.25;100881.78;4755096;30;20524;-79
2022/09/09 07:49:55;;;;;;;1.13;0.93;;;;;;;33.18;13.31;100889.78;4774389;30;20555;-79
2022/09/09 07:52:28;;;;;;;4.40;1.52;;;;;;;31.40;14.26;100907.19;4767694;30;20175;-78
2022/09/09 07:55:00;;;;;;;1.10;1.00;;;;;;;33.37;13.75;100898.13;4749872;29;20489;-80
2022/09/09 07:57:27;;;;;;;2.95;1.13;;;;;;;36.06;12.25;100884.78;4771287;30;20043;-79
2022/09/09 07:59:54;;;;;;;1.15;0.90;;;;;;;38.38;11.16;100860.47;4747683;30;20055;-77
2022/09/09 08:02:20;;;;;;;1.02;0.80;;;;;;;39.00;10.44;100875.31;4755452;30;20090;-81
2022/09/09 08:04:47;;;;;;;2.75;0.90;;;;;;;37.56;10.67;100880.16;4776702;29;20061;-77
2022/09/09 08:07:16;;;;;;;2.60;1.95;;;;;;;35.70;11.58;100885.56;4771219;30;20587;-78
2022/09/09 08:09:49;;;;;;;1.00;0.80;;;;;;;36.54;11.58;100897.03;4758246;30;20105;-78
2022/09/09 08:12:20;;;;;;;2.92;1.60;;;;;;;38.39;10.90;100892.06;4749715;30;20048;-80
2022/09/09 08:14:48;;;;;;;1.17;1.02;;;;;;;38.71;10.32;100890.31;4757731;30;20411;-79
2022/09/09 08:17:14;;;;;;;0.93;0.90;;;;;;;38.27;10.51;100904.25;4770801;29;20051;-78
2022/09/09 08:19:42;;;;;;;1.55;1.20;;;;;;;37.74;10.92;100896.34;4756450;30;20480;-79
2022/09/09 08:22:13;;;;;;;1.45;1.00;;;;;;;37.67;10.50;100904.31;4770670;29;20056;-78
2022/09/09 08:24:39;;;;;;;3.00;1.25;;;;;;;39.19;9.88;100894.13;4776819;29;20051;-78
2022/09/09 08:27:06;;;;;;;2.33;1.30;;;;;;;38.60;9.66;100898.00;4760485;30;20050;-77
2022/09/09 08:29:32;;;;;;;3.85;0.90;;;;;;;39.41;9.87;100900.69;4773757;30;20047;-78
2022/09/09 08:31:59;;;;;;;4.47;1.20;;;;;;;38.13;10.09;100908.50;4744155;30;20044;-79
2022/09/09 08:34:28;;;;;;;1.42;1.10;;;;;;;36.13;10.99;100899.38;4745330;30;20047;-84
2022/09/09 08:36:56;;;;;;;2.53;1.20;;;;;;;34.62;11.42;100905.72;4743946;30;20047;-77
2022/09/09 08:39:29;;;;;;;1.55;1.10;;;;;;;33.48;12.31;100917.75;4765495;30;20096;-79
2022/09/09 08:42:11;;;;;;;2.72;1.20;;;;;;;32.74;12.46;100918.72;4746259;30;20522;-78
2022/09/09 08:44:57;;;;;;;1.08;0.80;;;;;;;31.49;13.03;100914.50;4726839;30;20052;-79
2022/09/09 08:47:29;;;;;;;1.48;1.00;;;;;;;30.19;13.84;100927.97;4755667;30;20040;-80
2022/09/09 08:50:09;;;;;;;2.28;1.10;;;;;;;29.59;14.47;100929.59;4754680;29;20142;-78
2022/09/09 08:52:41;;;;;;;1.38;1.00;;;;;;;30.24;14.18;100926.75;4757162;30;20051;-79
2022/09/09 08:55:24;;;;;;;3.25;1.20;;;;;;;30.61;14.54;100914.13;4726922;30;20075;-78
2022/09/09 08:57:54;;;;;;;1.75;1.00;;;;;;;32.93;13.46;100912.63;4744747;30;20109;-77
2022/09/09 09:00:21;;;;;;;2.13;1.13;;;;;;;34.82;12.49;100894.84;4757106;30;20069;-77
2022/09/09 09:03:06;;;;;;;1.20;0.90;;;;;;;37.12;11.54;100913.72;4756191;30;20055;-80
2022/09/09 09:06:15;;;;;;;1.45;0.93;;;;;;;38.21;10.40;100903.06;4754723;30;20055;-79
2022/09/09 09:09:18;;;;;;;0.93;0.85;;;;;;;37.46;10.56;100909.31;4770615;29;20047;-79
2022/09/09 09:11:51;;;;;;;3.95;1.30;;;;;;;35.44;11.44;100907.88;4744649;30;20590;-79
2022/09/09 09:14:27;;;;;;;1.40;0.80;;;;;;;33.25;11.77;100916.19;4754473;30;20134;-77
2022/09/09 09:17:06;;;;;;;2.95;1.27;;;;;;;31.79;13.49;100923.81;4757077;30;20066;-79
2022/09/09 09:19:35;;;;;;;2.58;1.20;;;;;;;33.37;13.06;100915.13;4758107;30;20147;-81
2022/09/09 09:22:31;;;;;;;1.30;1.10;;;;;;;35.34;12.33;100909.78;4771246;29;20512;-81
2022/09/09 09:25:01;;;;;;;5.57;1.20;;;;;;;37.79;10.98;100910.28;4752066;30;20524;-79
2022/09/09 09:27:33;;;;;;;3.13;0.90;;;;;;;38.62;9.93;100906.81;4753707;30;20204;-78
2022/09/09 09:30:18;;;;;;;1.38;1.00;;;;;;;36.74;10.14;100919.38;4722521;30;20519;-79
2022/09/09 09:33:02;;;;;;;1.33;0.80;;;;;;;34.45;11.09;100914.53;4740709;30;20043;-78
2022/09/09 09:35:30;;;;;;;1.05;0.95;;;;;;;32.69;12.49;100929.88;4768353;30;20055;-79
2022/09/09 09:37:56;;;;;;;2.15;1.25;;;;;;;32.29;12.64;100931.41;4772573;29;20104;-77
2022/09/09 09:40:23;;;;;;;1.10;1.00;;;;;;;32.72;12.53;100926.06;4747884;30;20135;-78
2022/09/09 09:43:01;;;;;;;1.83;1.00;;;;;;;31.83;13.20;100921.72;4774701;29;20496;-77
2022/09/09 09:45:58;;;;;;;2.58;1.00;;;;;;;33.17;12.99;100908.78;4774532;29;20059;-77
2022/09/09 09:48:27;;;;;;;2.08;1.13;;;;;;;35.54;11.86;100906.00;4716827;30;20105;-78
2022/09/09 09:50:56;;;;;;;4.03;1.13;;;;;;;37.41;10.78;100898.06;4759087;30;20138;-78
2022/09/09 09:53:33;;;;;;;1.08;1.00;;;;;;;37.03;10.84;100907.41;4757204;30;20044;-78
2022/09/09 09:56:04;;;;;;;5.00;1.30;;;;;;;35.63;10.58;100909.69;4742522;30;20079;-79
2022/09/09 09:58:38;;;;;;;2.00;1.20;;;;;;;33.58;11.97;100923.16;4761960;30;20051;-78
2022/09/09 10:01:05;;;;;;;1.30;1.00;;;;;;;31.52;12.52;100925.03;4747408;30;20126;-76
2022/09/09 10:03:44;;;;;;;2.17;0.90;;;;;;;30.17;13.35;100912.94;4758501;30;20060;-79
2022/09/09 10:06:12;;;;;;;4.18;1.88;;;;;;;29.09;14.55;100916.97;4755224;30;20136;-78
2022/09/09 10:08:46;;;;;;;2.67;1.50;;;;;;;28.30;15.29;100940.13;4760419;30;20677;-79
2022/09/09 10:11:14;;;;;;;3.35;1.13;;;;;;;27.77;15.98;100943.44;4741131;29;20048;-78
2022/09/09 10:13:54;;;;;;;2.55;1.25;;;;;;;27.29;16.39;100938.38;4758292;29;20056;-78
2022/09/09 10:16:52;;;;;;;1.35;1.00;;;;;;;27.30;16.76;100929.41;4741450;30;20419;-77
2022/09/09 10:19:32;;;;;;;3.22;1.88;;;;;;;26.97;16.69;100949.19;4773426;29;20047;-77
2022/09/09 10:22:25;;;;;;;1.38;1.27;;;;;;;28.43;16.20;100930.31;4757915;29;20047;-79
2022/09/09 10:25:19;;;;;;;1.65;1.00;;;;;;;29.49;15.79;100920.50;4759861;29;20409;-79
2022/09/09 10:28:30;;;;;;;1.77;0.70;;;;;;;30.23;14.79;100925.06;4761802;30;20043;-79
2022/09/09 10:31:22;;;;;;;1.33;0.90;;;;;;;30.88;14.58;100922.88;4726854;30;20063;-81
2022/09/09 10:34:01;;;;;;;1.45;1.15;;;;;;;31.05;14.59;100922.41;4756972;30;20047;-80
2022/09/09 10:36:40;;;;;;;3.42;1.02;;;;;;;30.92;14.30;100930.56;4730401;30;20134;-85
2022/09/09 10:39:34;;;;;;;2.25;1.25;;;;;;;29.28;15.35;100912.97;4758365;29;20393;-79
2022/09/09 10:42:08;;;;;;;8.25;2.75;;;;;;;27.93;15.75;100933.47;4774308;30;20070;-78
2022/09/09 10:44:52;;;;;;;14.68;4.80;;;;;;;27.23;16.33;100944.97;4774158;29;20735;-81
2022/09/09 10:47:40;;;;;;;6.63;1.77;;;;;;;26.36;17.52;100942.03;4774710;29;20606;-80
2022/09/09 10:50:12;;;;;;;1.73;0.90;;;;;;;25.58;17.72;100941.84;4759831;30;20047;-78
2022/09/09 10:53:03;;;;;;;0.88;0.70;;;;;;;24.46;18.60;100944.81;4749146;30;20047;-78
2022/09/09 10:55:45;;;;;;;2.53;1.52;;;;;;;23.61;19.19;100947.00;4774540;29;20543;-80
2022/09/09 10:58:23;;;;;;;2.00;1.13;;;;;;;23.03;19.75;100956.59;4746444;30;20051;-77
2022/09/09 11:01:02;;;;;;;3.13;0.97;;;;;;;22.39;20.00;100961.78;4766762;30;20051;-78
2022/09/09 11:03:29;;;;;;;2.22;0.80;;;;;;;21.96;20.28;100961.69;4766155;30;20343;-81
2022/09/09 11:06:04;;;;;;;2.10;1.20;;;;;;;21.52;20.88;100945.63;4773474;29;20056;-79
2022/09/09 11:08:33;;;;;;;6.78;1.85;;;;;;;21.38;21.52;100943.50;4773918;30;20090;-77
2022/09/09 11:11:08;;;;;;;4.05;2.05;;;;;;;21.30;21.68;100962.28;4772690;30;20138;-80
2022/09/09 11:13:39;;;;;;;2.42;1.40;;;;;;;21.31;21.91;100964.00;4770700;30;20093;-81
2022/09/09 11:16:27;;;;;;;2.22;1.10;;;;;;;21.40;22.41;100964.63;4759219;29;20043;-79
2022/09/09 11:19:28;;;;;;;1.95;1.10;;;;;;;21.18;22.22;100965.38;4784058;29;20121;-77
2022/09/09 11:21:57;;;;;;;4.03;1.30;;;;;;;20.86;22.56;100952.34;4741247;30;20063;-78
2022/09/09 11:24:37;;;;;;;5.60;2.15;;;;;;;20.68;22.79;100964.34;4730005;30;20047;-79
2022/09/09 11:27:06;;;;;;;5.40;1.70;;;;;;;20.27;23.47;100970.06;4780581;29;20042;-78
2022/09/09 11:29:57;;;;;;;3.97;1.55;;;;;;;19.76;23.70;100976.78;4793088;29;20337;-77
2022/09/09 11:32:40;;;;;;;3.03;1.00;;;;;;;19.32;24.15;100969.22;4763060;30;20150;-77
2022/09/09 11:35:42;;;;;;;2.28;1.00;;;;;;;18.94;24.68;100976.31;4783515;29;20035;-78
2022/09/09 11:38:15;;;;;;;2.08;0.90;;;;;;;18.75;25.23;100979.41;4752444;30;20090;-77
2022/09/09 11:40:42;;;;;;;4.28;1.00;;;;;;;18.71;25.65;100974.22;4739938;30;20068;-80
2022/09/09 11:43:21;;;;;;;2.50;0.88;;;;;;;18.71;25.79;100972.47;4742992;30;20051;-78
2022/09/09 11:45:57;;;;;;;1.35;1.00;;;;;;;18.76;25.59;100975.84;4765720;30;20725;-79
2022/09/09 11:48:32;;;;;;;1.95;1.00;;;;;;;18.68;25.63;100977.81;4718043;30;20056;-77
2022/09/09 11:51:04;;;;;;;5.78;1.45;;;;;;;18.66;25.90;100964.66;4763678;30;20055;-78
2022/09/09 11:53:32;;;;;;;2.10;0.90;;;;;;;18.71;25.91;100972.47;4738824;30;20420;-79
2022/09/09 11:56:07;;;;;;;1.05;0.95;;;;;;;18.84;26.00;100973.03;4783873;29;20043;-77
2022/09/09 11:58:40;;;;;;;1.80;0.82;;;;;;;18.99;26.09;100971.81;4773102;30;20070;-79
2022/09/09 12:01:30;;;;;;;2.35;1.10;;;;;;;19.08;25.72;100966.31;4769246;30;20100;-79
2022/09/09 12:04:09;;;;;;;2.92;1.08;;;;;;;18.99;25.45;100971.81;4774102;29;20056;-77
2022/09/09 12:06:56;;;;;;;1.20;1.00;;;;;;;18.78;25.84;100971.41;4789683;29;20043;-78